createdAt,value
2023-07-03T00:00:19.367Z,100571.16
2023-07-03T00:02:52.715Z,100575.06
2023-07-03T00:05:21.242Z,100540.66
2023-07-03T00:07:48.711Z,100591.09
2023-07-03T00:10:17.148Z,100583.34
2023-07-03T00:12:45.613Z,100538.72
2023-07-03T00:15:13.097Z,100429.41
2023-07-03T00:17:40.921Z,100567.22
2023-07-03T00:20:12.654Z,100567.81
2023-07-03T00:22:39.926Z,100529.38
2023-07-03T00:25:08.202Z,100559.88
2023-07-03T00:27:35.329Z,100596.50
2023-07-03T00:30:03.340Z,100599.22
2023-07-03T00:32:31.384Z,100602.16
2023-07-03T00:34:58.538Z,100577.88
2023-07-03T00:37:26.040Z,100546.59
2023-07-03T00:39:53.710Z,100590.34
2023-07-03T00:42:24.565Z,100610.53
2023-07-03T00:44:51.688Z,100600.09
2023-07-03T00:47:19.003Z,100559.88
2023-07-03T00:49:46.383Z,100604.34
2023-07-03T00:52:14.753Z,100594.16
2023-07-03T00:54:42.146Z,100602.22
2023-07-03T00:57:14.460Z,100605.84
2023-07-03T00:59:41.704Z,100583.31
2023-07-03T01:02:21.093Z,100602.53
2023-07-03T01:05:05.330Z,100591.66
2023-07-03T01:07:35.957Z,100592.66
2023-07-03T01:10:16.097Z,100600.78
2023-07-03T01:12:47.141Z,100599.59
2023-07-03T01:15:19.023Z,100602.31
2023-07-03T01:17:49.006Z,100606.97
2023-07-03T01:20:18.863Z,100615.50
2023-07-03T01:22:54.834Z,100618.03
2023-07-03T01:25:25.784Z,100616.25
2023-07-03T01:27:54.430Z,100599.69
2023-07-03T01:30:22.702Z,100620.13
2023-07-03T01:32:53.739Z,100574.44
2023-07-03T01:35:21.437Z,100522.16
2023-07-03T01:37:53.032Z,100613.00
2023-07-03T01:40:24.655Z,100629.72
2023-07-03T01:42:54.659Z,100634.16
2023-07-03T01:45:22.019Z,100630.84
2023-07-03T01:47:49.392Z,100622.91
2023-07-03T01:50:21.913Z,100572.94
2023-07-03T01:52:56.765Z,100629.72
2023-07-03T01:55:30.068Z,100630.25
2023-07-03T01:58:04.931Z,100620.81
2023-07-03T02:00:51.276Z,100612.28
2023-07-03T02:03:27.203Z,100621.03
2023-07-03T02:05:57.161Z,100623.94
2023-07-03T02:08:25.910Z,100621.84
2023-07-03T02:10:55.367Z,100582.81
2023-07-03T02:13:22.698Z,100609.97
2023-07-03T02:15:51.068Z,100624.13
2023-07-03T02:18:22.099Z,100622.00
2023-07-03T02:20:50.598Z,100623.94
2023-07-03T02:23:18.466Z,100633.25
2023-07-03T02:25:47.069Z,100632.28
2023-07-03T02:28:14.295Z,100611.94
2023-07-03T02:30:41.442Z,100614.03
2023-07-03T02:33:12.262Z,100638.28
2023-07-03T02:35:42.676Z,100629.75
2023-07-03T02:38:11.682Z,100642.00
2023-07-03T02:40:41.016Z,100624.72
2023-07-03T02:43:08.149Z,100647.09
2023-07-03T02:45:39.390Z,100646.09
2023-07-03T02:48:09.836Z,100559.06
2023-07-03T02:50:40.164Z,100634.88
2023-07-03T02:53:08.699Z,100610.19
2023-07-03T02:55:37.221Z,100648.50
2023-07-03T02:58:05.430Z,100625.97
2023-07-03T03:00:36.706Z,100651.03
2023-07-03T03:03:04.329Z,100649.25
2023-07-03T03:05:31.663Z,100650.03
2023-07-03T03:07:59.074Z,100658.94
2023-07-03T03:10:26.550Z,100662.78
2023-07-03T03:12:53.659Z,100665.47
2023-07-03T03:15:21.076Z,100639.44
2023-07-03T03:17:48.307Z,100658.78
2023-07-03T03:20:15.701Z,100660.88
2023-07-03T03:22:43.051Z,100611.13
2023-07-03T03:25:10.351Z,100638.22
2023-07-03T03:27:37.477Z,100634.16
2023-07-03T03:30:05.239Z,100663.50
2023-07-03T03:32:36.384Z,100675.78
2023-07-03T03:35:03.947Z,100666.66
2023-07-03T03:37:31.176Z,100667.69
2023-07-03T03:40:00.692Z,100646.31
2023-07-03T03:42:27.900Z,100646.16
2023-07-03T03:44:55.194Z,100646.53
2023-07-03T03:47:24.447Z,100665.25
2023-07-03T03:49:52.306Z,100630.81
2023-07-03T03:52:19.537Z,100626.81
2023-07-03T03:54:48.606Z,100672.00
2023-07-03T03:57:15.873Z,100658.19
2023-07-03T03:59:43.080Z,100679.53
2023-07-03T04:02:10.497Z,100677.03
2023-07-03T04:04:37.820Z,100654.09
2023-07-03T04:07:05.441Z,100603.38
2023-07-03T04:09:32.550Z,100684.66
2023-07-03T04:11:59.618Z,100683.28
2023-07-03T04:14:26.703Z,100686.34
2023-07-03T04:16:54.912Z,100561.69
2023-07-03T04:19:24.520Z,100697.56
2023-07-03T04:21:51.584Z,100633.75
2023-07-03T04:24:19.775Z,100669.50
2023-07-03T04:26:46.963Z,100699.91
2023-07-03T04:29:14.032Z,100687.81
2023-07-03T04:31:41.195Z,100689.38
2023-07-03T04:34:08.367Z,100696.00
2023-07-03T04:36:35.708Z,100702.56
2023-07-03T04:39:03.047Z,100641.34
2023-07-03T04:41:30.200Z,100698.50
2023-07-03T04:44:01.958Z,100651.66
2023-07-03T04:46:29.574Z,100677.09
2023-07-03T04:49:06.782Z,100644.53
2023-07-03T04:51:34.174Z,100685.59
2023-07-03T04:54:02.209Z,100712.19
2023-07-03T04:56:30.382Z,100716.25
2023-07-03T04:58:57.547Z,100712.56
2023-07-03T05:01:25.600Z,100706.59
2023-07-03T05:03:52.864Z,100720.13
2023-07-03T05:06:20.161Z,100728.53
2023-07-03T05:08:48.166Z,100699.75
2023-07-03T05:11:15.460Z,100725.03
2023-07-03T05:13:42.853Z,100704.78
2023-07-03T05:16:10.195Z,100717.28
2023-07-03T05:18:37.373Z,100689.69
2023-07-03T05:21:07.393Z,100742.41
2023-07-03T05:23:34.652Z,100746.06
2023-07-03T05:26:01.746Z,100750.16
2023-07-03T05:28:28.917Z,100695.75
2023-07-03T05:30:57.107Z,100744.19
2023-07-03T05:33:25.682Z,100745.78
2023-07-03T05:35:54.594Z,100727.19
2023-07-03T05:38:22.451Z,100699.22
2023-07-03T05:40:51.551Z,100712.91
2023-07-03T05:43:20.031Z,100736.88
2023-07-03T05:45:50.913Z,100713.34
2023-07-03T05:48:18.579Z,100748.72
2023-07-03T05:50:46.072Z,100663.38
2023-07-03T05:53:13.550Z,100735.91
2023-07-03T05:55:40.664Z,100758.06
2023-07-03T05:58:08.026Z,100758.47
2023-07-03T06:00:35.259Z,100757.56
2023-07-03T06:03:03.808Z,100732.25
2023-07-03T06:05:31.143Z,100763.78
2023-07-03T06:07:58.298Z,100755.63
2023-07-03T06:10:25.521Z,100764.75
2023-07-03T06:12:52.910Z,100774.25
2023-07-03T06:15:20.198Z,100758.34
2023-07-03T06:17:47.438Z,100744.94
2023-07-03T06:20:15.254Z,100783.03
2023-07-03T06:22:43.515Z,100787.66
2023-07-03T06:25:11.484Z,100771.97
2023-07-03T06:27:38.696Z,100763.63
2023-07-03T06:30:06.848Z,100656.75
2023-07-03T06:32:34.078Z,100672.88
2023-07-03T06:35:04.272Z,100786.53
2023-07-03T06:37:34.461Z,100786.13
2023-07-03T06:40:01.877Z,100759.91
2023-07-03T06:42:29.331Z,100756.63
2023-07-03T06:45:00.826Z,100748.66
2023-07-03T06:47:27.995Z,100764.78
2023-07-03T06:49:55.114Z,100780.16
2023-07-03T06:52:22.258Z,100757.41
2023-07-03T06:54:49.432Z,100783.47
2023-07-03T06:57:16.548Z,100788.91
2023-07-03T06:59:43.701Z,100788.69
2023-07-03T07:02:11.038Z,100775.09
2023-07-03T07:04:38.367Z,100748.47
2023-07-03T07:07:05.404Z,100769.81
2023-07-03T07:09:32.556Z,100789.63
2023-07-03T07:11:59.745Z,100700.53
2023-07-03T07:14:26.796Z,100721.44
2023-07-03T07:16:53.951Z,100720.09
2023-07-03T07:19:21.085Z,100785.88
2023-07-03T07:21:48.170Z,100787.22
2023-07-03T07:24:21.450Z,100773.25
2023-07-03T07:26:48.944Z,100796.69
2023-07-03T07:29:16.207Z,100773.81
2023-07-03T07:31:43.446Z,100777.66
2023-07-03T07:34:11.987Z,100739.00
2023-07-03T07:36:40.367Z,100807.91
2023-07-03T07:39:08.603Z,100797.72
2023-07-03T07:41:36.501Z,100805.66
2023-07-03T07:44:03.878Z,100793.97
2023-07-03T07:46:32.895Z,100780.34
2023-07-03T07:49:01.642Z,100799.50
2023-07-03T07:51:30.291Z,100800.66
2023-07-03T07:53:58.666Z,100798.09
2023-07-03T07:56:26.726Z,100810.09
2023-07-03T07:58:53.890Z,100797.16
2023-07-03T08:01:21.369Z,100804.69
2023-07-03T08:03:49.260Z,100779.03
2023-07-03T08:06:17.470Z,100798.78
2023-07-03T08:08:44.656Z,100781.06
2023-07-03T08:11:12.514Z,100790.63
2023-07-03T08:13:41.493Z,100810.09
2023-07-03T08:16:10.602Z,100802.84
2023-07-03T08:18:38.106Z,100799.13
2023-07-03T08:21:05.485Z,100784.78
2023-07-03T08:23:32.741Z,100800.09
2023-07-03T08:26:01.991Z,100759.41
2023-07-03T08:28:29.735Z,100801.72
2023-07-03T08:30:59.385Z,100793.88
2023-07-03T08:33:26.990Z,100788.13
2023-07-03T08:38:25.129Z,100793.88
2023-07-03T08:41:00.477Z,100795.72
2023-07-03T08:43:39.156Z,100801.91
2023-07-03T08:46:21.153Z,100775.88
2023-07-03T08:48:50.506Z,100799.66
2023-07-03T08:51:19.998Z,100758.88
2023-07-03T08:53:53.158Z,100813.44
2023-07-03T08:56:28.017Z,100784.84
2023-07-03T08:58:57.083Z,100776.94
2023-07-03T09:02:01.431Z,100816.13
2023-07-03T09:04:37.899Z,100812.75
2023-07-03T09:07:18.465Z,100789.75
2023-07-03T09:10:07.765Z,100817.06
2023-07-03T09:12:41.338Z,100812.66
2023-07-03T09:15:19.773Z,100821.28
2023-07-03T09:17:48.594Z,100806.25
2023-07-03T09:20:17.237Z,100810.97
2023-07-03T09:22:59.347Z,100819.47
2023-07-03T09:26:06.840Z,100825.00
2023-07-03T09:28:39.782Z,100831.38
2023-07-03T09:31:07.262Z,100820.44
2023-07-03T09:33:34.648Z,100763.25
2023-07-03T09:36:20.879Z,100823.97
2023-07-03T09:38:48.739Z,100823.09
2023-07-03T09:41:28.655Z,100811.53
2023-07-03T09:43:56.684Z,100800.06
2023-07-03T09:46:25.939Z,100812.38
2023-07-03T09:48:53.315Z,100798.25
2023-07-03T09:51:29.247Z,100811.63
2023-07-03T09:53:58.613Z,100797.25
2023-07-03T09:56:31.212Z,100807.13
2023-07-03T09:59:05.269Z,100756.34
2023-07-03T10:06:40.242Z,100732.16
2023-07-03T10:12:22.856Z,100808.66
2023-07-03T10:14:57.047Z,100787.81
2023-07-03T10:17:54.840Z,100805.09
2023-07-03T10:20:34.038Z,100808.06
2023-07-03T10:23:04.053Z,100735.34
2023-07-03T10:25:40.063Z,100797.78
2023-07-03T10:28:15.939Z,100834.38
2023-07-03T10:30:43.534Z,100801.63
2023-07-03T10:33:19.985Z,100791.78
2023-07-03T10:35:50.948Z,100778.94
2023-07-03T10:38:36.467Z,100793.97
2023-07-03T10:41:10.282Z,100789.03
2023-07-03T10:43:45.012Z,100763.09
2023-07-03T10:46:20.847Z,100786.75
2023-07-03T10:48:49.962Z,100776.78
2023-07-03T10:51:33.635Z,100737.00
2023-07-03T10:54:19.088Z,100783.91
2023-07-03T10:56:49.302Z,100783.34
2023-07-03T10:59:21.074Z,100786.91
2023-07-03T11:02:15.645Z,100792.75
2023-07-03T11:05:09.867Z,100784.28
2023-07-03T11:07:51.795Z,100735.59
2023-07-03T11:10:24.986Z,100780.06
2023-07-03T11:12:57.915Z,100783.47
2023-07-03T11:15:29.126Z,100787.75
2023-07-03T11:23:28.649Z,100798.75
2023-07-03T11:28:53.612Z,100784.41
2023-07-03T11:31:21.989Z,100761.03
2023-07-03T11:36:50.235Z,100793.03
2023-07-03T11:44:47.237Z,100800.00
2023-07-03T11:47:32.300Z,100758.88
2023-07-03T11:50:02.271Z,100713.25
2023-07-03T11:52:42.462Z,100793.69
2023-07-03T11:55:22.336Z,100745.25
2023-07-03T11:58:14.308Z,100782.25
2023-07-03T12:00:44.185Z,100781.47
2023-07-03T12:03:12.352Z,100758.41
2023-07-03T12:05:48.750Z,100780.69
2023-07-03T12:08:19.344Z,100780.41
2023-07-03T12:10:56.977Z,100775.53
2023-07-03T12:13:42.926Z,100773.34
2023-07-03T12:16:24.178Z,100777.97
2023-07-03T12:19:11.764Z,100783.38
2023-07-03T12:21:50.916Z,100764.88
2023-07-03T12:24:31.712Z,100770.28
2023-07-03T12:27:04.779Z,100756.00
2023-07-03T12:29:35.001Z,100774.28
2023-07-03T12:32:09.325Z,100769.97
2023-07-03T12:34:41.699Z,100722.94
2023-07-03T12:37:22.132Z,100758.03
2023-07-03T12:39:50.318Z,100743.00
2023-07-03T12:42:24.027Z,100757.41
2023-07-03T12:44:52.443Z,100731.91
2023-07-03T12:47:22.038Z,100773.19
2023-07-03T12:49:57.031Z,100758.06
2023-07-03T12:52:26.319Z,100767.16
2023-07-03T12:55:05.601Z,100769.94
2023-07-03T12:57:40.674Z,100778.75
2023-07-03T13:00:16.408Z,100768.72
2023-07-03T13:02:44.552Z,100761.44
2023-07-03T13:05:15.067Z,100757.28
2023-07-03T13:07:45.027Z,100772.91
2023-07-03T13:10:19.941Z,100763.75
2023-07-03T13:13:02.992Z,100757.88
2023-07-03T13:15:37.624Z,100767.94
2023-07-03T13:18:09.037Z,100763.44
2023-07-03T13:20:36.528Z,100734.69
2023-07-03T13:23:06.670Z,100760.94
2023-07-03T13:25:41.029Z,100763.44
2023-07-03T13:28:22.021Z,100759.41
2023-07-03T13:31:19.858Z,100754.03
2023-07-03T13:34:16.301Z,100759.13
2023-07-03T13:36:47.088Z,100745.19
2023-07-03T13:39:20.152Z,100754.78
2023-07-03T13:41:48.089Z,100757.56
2023-07-03T13:44:20.530Z,100755.06
2023-07-03T13:46:49.640Z,100758.94
2023-07-03T13:49:18.115Z,100743.16
2023-07-03T13:51:47.173Z,100763.44
2023-07-03T13:54:16.149Z,100762.50
2023-07-03T13:56:44.450Z,100763.09
2023-07-03T13:59:12.712Z,100757.38
2023-07-03T14:01:41.917Z,100765.41
2023-07-03T14:04:09.879Z,100765.13
2023-07-03T14:06:37.215Z,100759.84
2023-07-03T14:09:05.606Z,100766.66
2023-07-03T14:11:33.429Z,100761.53
2023-07-03T14:14:00.718Z,100762.19
2023-07-03T14:16:29.350Z,100678.16
2023-07-03T14:18:56.872Z,100667.19
2023-07-03T14:21:25.472Z,100772.84
2023-07-03T14:23:52.783Z,100671.03
2023-07-03T14:26:20.285Z,100754.09
2023-07-03T14:28:47.496Z,100759.06
2023-07-03T14:31:17.478Z,100745.28
2023-07-03T14:33:45.574Z,100735.22
2023-07-03T14:36:13.139Z,100747.16
2023-07-03T14:38:40.639Z,100704.97
2023-07-03T14:41:08.301Z,100732.63
2023-07-03T14:43:35.578Z,100661.75
2023-07-03T14:46:02.859Z,100755.22
2023-07-03T14:48:30.360Z,100726.16
2023-07-03T14:50:57.677Z,100758.63
2023-07-03T14:53:25.081Z,100756.44
2023-07-03T14:55:56.842Z,100749.16
2023-07-03T14:58:24.469Z,100735.75
2023-07-03T15:00:53.186Z,100713.97
2023-07-03T15:03:20.537Z,100708.56
2023-07-03T15:05:48.260Z,100738.84
2023-07-03T15:08:16.441Z,100740.53
2023-07-03T15:10:43.774Z,100753.38
2023-07-03T15:13:11.238Z,100758.00
2023-07-03T15:15:38.456Z,100665.03
2023-07-03T15:18:05.982Z,100681.06
2023-07-03T15:20:39.347Z,100755.09
2023-07-03T15:23:07.508Z,100725.25
2023-07-03T15:25:35.476Z,100756.03
2023-07-03T15:28:02.564Z,100749.38
2023-07-03T15:30:29.740Z,100732.66
2023-07-03T15:32:56.952Z,100742.88
2023-07-03T15:35:24.121Z,100745.69
2023-07-03T15:37:52.293Z,100754.19
2023-07-03T15:40:19.518Z,100743.22
2023-07-03T15:42:47.031Z,100732.72
2023-07-03T15:45:14.546Z,100628.06
2023-07-03T15:47:45.042Z,100754.78
2023-07-03T15:50:12.300Z,100750.19
2023-07-03T15:52:39.418Z,100751.56
2023-07-03T15:55:07.217Z,100758.22
2023-07-03T15:57:34.517Z,100656.19
2023-07-03T16:00:01.711Z,100664.34
2023-07-03T16:02:32.846Z,100746.25
2023-07-03T16:05:00.044Z,100750.91
2023-07-03T16:07:27.229Z,100733.16
2023-07-03T16:09:54.300Z,100725.41
2023-07-03T16:12:21.448Z,100693.59
2023-07-03T16:14:49.086Z,100708.25
2023-07-03T16:17:16.594Z,100758.53
2023-07-03T16:20:03.963Z,100762.84
2023-07-03T16:22:31.161Z,100747.38
2023-07-03T16:24:58.339Z,100670.69
2023-07-03T16:27:25.383Z,100674.59
2023-07-03T16:29:52.567Z,100753.41
2023-07-03T16:32:19.718Z,100749.25
2023-07-03T16:34:47.644Z,100675.06
2023-07-03T16:37:14.774Z,100777.38
2023-07-03T16:39:42.000Z,100771.19
2023-07-03T16:42:09.173Z,100743.47
2023-07-03T16:44:36.299Z,100756.94
2023-07-03T16:47:03.768Z,100776.41
2023-07-03T16:49:30.924Z,100729.72
2023-07-03T16:51:58.078Z,100637.09
2023-07-03T16:54:25.215Z,100758.78
2023-07-03T16:56:53.406Z,100774.72
2023-07-03T16:59:20.554Z,100728.50
2023-07-03T17:01:48.806Z,100775.94
2023-07-03T17:04:16.033Z,100765.44
2023-07-03T17:06:43.201Z,100770.84
2023-07-03T17:09:10.430Z,100770.53
2023-07-03T17:11:37.641Z,100767.13
2023-07-03T17:14:05.633Z,100781.31
2023-07-03T17:16:34.027Z,100706.91
2023-07-03T17:19:01.300Z,100671.75
2023-07-03T17:21:30.090Z,100763.66
2023-07-03T17:24:02.852Z,100732.97
2023-07-03T17:26:31.134Z,100733.34
2023-07-03T17:28:58.341Z,100798.31
2023-07-03T17:31:26.487Z,100754.97
2023-07-03T17:33:57.249Z,100780.19
2023-07-03T17:36:25.125Z,100767.69
2023-07-03T17:38:52.679Z,100790.59
2023-07-03T17:41:20.643Z,100788.88
2023-07-03T17:43:48.720Z,100735.44
2023-07-03T17:46:17.172Z,100729.53
2023-07-03T17:48:45.015Z,100742.81
2023-07-03T17:51:12.931Z,100786.41
2023-07-03T17:53:41.709Z,100774.09
2023-07-03T17:56:09.179Z,100796.16
2023-07-03T17:58:36.334Z,100716.69
2023-07-03T18:01:04.387Z,100799.81
2023-07-03T18:03:33.709Z,100781.66
2023-07-03T18:06:02.059Z,100813.00
2023-07-03T18:08:29.368Z,100731.94
2023-07-03T18:10:56.719Z,100822.06
2023-07-03T18:13:24.005Z,100818.97
2023-07-03T18:15:51.311Z,100809.41
2023-07-03T18:18:21.082Z,100731.47
2023-07-03T18:20:48.590Z,100816.72
2023-07-03T18:23:16.154Z,100751.28
2023-07-03T18:25:43.342Z,100814.84
2023-07-03T18:28:10.608Z,100808.66
2023-07-03T18:30:37.883Z,100686.31
2023-07-03T18:33:05.148Z,100830.84
2023-07-03T18:35:36.835Z,100790.63
2023-07-03T18:38:04.465Z,100839.09
2023-07-03T18:40:31.788Z,100824.97
2023-07-03T18:42:58.943Z,100832.72
2023-07-03T18:45:26.174Z,100777.44
2023-07-03T18:47:53.539Z,100835.06
2023-07-03T18:50:21.004Z,100833.75
2023-07-03T18:52:48.127Z,100760.84
2023-07-03T18:55:15.355Z,100860.41
2023-07-03T18:57:44.337Z,100783.97
2023-07-03T19:00:13.556Z,100865.84
2023-07-03T19:02:40.901Z,100874.09
2023-07-03T19:05:08.670Z,100860.78
2023-07-03T19:07:35.861Z,100765.81
2023-07-03T19:10:16.829Z,100888.44
2023-07-03T19:12:45.568Z,100883.09
2023-07-03T19:15:12.879Z,100871.22
2023-07-03T19:17:40.388Z,100774.28
2023-07-03T19:20:08.154Z,100863.53
2023-07-03T19:22:35.970Z,100859.22
2023-07-03T19:25:03.267Z,100860.00
2023-07-03T19:27:30.467Z,100825.63
2023-07-03T19:29:57.752Z,100721.19
2023-07-03T19:32:25.226Z,100886.47
2023-07-03T19:34:53.331Z,100853.50
2023-07-03T19:37:20.628Z,100879.06
2023-07-03T19:39:47.742Z,100824.16
2023-07-03T19:42:14.895Z,100885.50
2023-07-03T19:44:42.055Z,100881.25
2023-07-03T19:47:09.465Z,100805.44
2023-07-03T19:49:36.938Z,100776.13
2023-07-03T19:52:04.545Z,100873.97
2023-07-03T19:54:31.881Z,100871.44
2023-07-03T19:56:59.055Z,100796.22
2023-07-03T19:59:26.248Z,100903.34
2023-07-03T20:01:53.733Z,100873.44
2023-07-03T20:04:22.223Z,100828.59
2023-07-03T20:06:49.675Z,100897.72
2023-07-03T20:09:16.828Z,100904.56
2023-07-03T20:11:44.842Z,100893.03
2023-07-03T20:14:12.110Z,100887.16
2023-07-03T20:16:41.825Z,100880.97
2023-07-03T20:19:11.077Z,100895.19
2023-07-03T20:21:38.426Z,100887.28
2023-07-03T20:24:05.972Z,100910.34
2023-07-03T20:26:33.422Z,100893.72
2023-07-03T20:29:00.540Z,100902.13
2023-07-03T20:31:27.828Z,100903.47
2023-07-03T20:33:56.623Z,100903.66
2023-07-03T20:36:23.840Z,100915.13
2023-07-03T20:38:51.089Z,100870.84
2023-07-03T20:41:18.295Z,100905.00
2023-07-03T20:43:45.688Z,100914.56
2023-07-03T20:46:15.356Z,100891.41
2023-07-03T20:48:43.107Z,100910.09
2023-07-03T20:51:22.064Z,100894.53
2023-07-03T20:53:52.125Z,100887.97
2023-07-03T20:56:21.966Z,100914.84
2023-07-03T20:58:53.309Z,100904.47
2023-07-03T21:01:28.856Z,100897.28
2023-07-03T21:03:59.796Z,100888.75
2023-07-03T21:06:30.167Z,100909.19
2023-07-03T21:08:59.310Z,100913.25
2023-07-03T21:11:29.417Z,100907.63
2023-07-03T21:14:00.975Z,100916.19
2023-07-03T21:16:28.205Z,100916.00
2023-07-03T21:18:55.564Z,100856.34
2023-07-03T21:21:33.880Z,100838.66
2023-07-03T21:24:04.091Z,100916.81
2023-07-03T21:26:31.843Z,100920.50
2023-07-03T21:28:59.680Z,100912.88
2023-07-03T21:31:30.644Z,100926.41
2023-07-03T21:33:57.928Z,100926.75
2023-07-03T21:36:27.626Z,100931.84
2023-07-03T21:38:57.045Z,100931.25
2023-07-03T21:41:32.009Z,100911.34
2023-07-03T21:44:02.167Z,100909.56
2023-07-03T21:46:31.990Z,100926.31
2023-07-03T21:48:59.511Z,100911.34
2023-07-03T21:51:28.770Z,100927.84
2023-07-03T21:53:56.135Z,100908.94
2023-07-03T21:56:28.660Z,100886.94
2023-07-03T21:58:58.019Z,100815.44
2023-07-03T22:01:29.398Z,100928.28
2023-07-03T22:03:57.722Z,100926.94
2023-07-03T22:06:26.835Z,100927.94
2023-07-03T22:08:54.871Z,100920.69
2023-07-03T22:11:23.114Z,100911.34
2023-07-03T22:13:50.575Z,100922.31
2023-07-03T22:16:18.691Z,100929.25
2023-07-03T22:18:46.740Z,100925.44
2023-07-03T22:21:15.737Z,100924.16
2023-07-03T22:23:45.444Z,100926.13
2023-07-03T22:26:12.639Z,100906.13
2023-07-03T22:28:39.761Z,100894.09
2023-07-03T22:31:06.887Z,100933.38
2023-07-03T22:33:34.327Z,100877.81
2023-07-03T22:36:01.509Z,100917.91
2023-07-03T22:38:28.694Z,100928.03
2023-07-03T22:40:55.854Z,100910.91
2023-07-03T22:43:23.082Z,100927.84
2023-07-03T22:45:50.409Z,100931.75
2023-07-03T22:48:17.863Z,100938.34
2023-07-03T22:50:54.101Z,100919.88
2023-07-03T22:53:21.886Z,100923.00
2023-07-03T22:55:48.983Z,100861.13
2023-07-03T22:58:16.282Z,100920.28
2023-07-03T23:00:43.488Z,100933.13
2023-07-03T23:03:10.587Z,100943.59
2023-07-03T23:05:48.244Z,100932.88
2023-07-03T23:08:16.464Z,100929.38
2023-07-03T23:10:52.369Z,100933.66
2023-07-03T23:13:24.852Z,100931.16
2023-07-03T23:16:00.430Z,100875.88
2023-07-03T23:18:30.888Z,100854.31
2023-07-03T23:21:03.814Z,100924.94
2023-07-03T23:23:33.826Z,100923.16
2023-07-03T23:26:07.019Z,100920.34
2023-07-03T23:28:36.236Z,100920.13
2023-07-03T23:31:06.470Z,100902.81
2023-07-03T23:33:34.459Z,100916.06
2023-07-03T23:36:06.180Z,100835.31
2023-07-03T23:38:34.607Z,100763.63
2023-07-03T23:41:04.633Z,100922.66
2023-07-03T23:43:33.212Z,100913.50
2023-07-03T23:46:00.378Z,100866.34
2023-07-03T23:48:28.407Z,100930.56
2023-07-03T23:50:58.169Z,100937.91
2023-07-03T23:53:25.895Z,100853.38
2023-07-03T23:55:54.035Z,100936.34
2023-07-03T23:58:24.433Z,100937.69
